Saturday, June 24, 2017 (20:32 UTC)
OPMET DATA 
Terminal Aerodrome Forecast (TAF) and METAR
TAFs are issued by Aviation Meteorological Office, for Abu Dhabi (OMAA), Bateen (OMAD), Al Ain (OMAL), Dubai (OMDB), Al Maktoum (OMDW), Sharjah (OMSJ), Ras Al Khaimah (OMRK) and Fujairah (OMFJ) airports. These TAFs are issued every 6 hours and are valid for a 30 hour period. METARs (Aviation Routine Weather Reports) are updated hourly.
Show ICAO codes
Select OPMET type:        SEARCH   PRINT
Aviation Meteorology - National Center of Meteorology & Seismology (NCMS)
Telephone: +971 2 5757346 / 5053676
Email: metweb@adiamet.gov.ae
Website: www.avmet.ae
METAR OMAA 242000Z 29007KT CAVOK 33/26 Q0998 NOSIG=
METAR OMAD 242000Z 34003KT 310V010 CAVOK 34/26 Q0999 NOSIG=
METAR OMAL 242000Z 35005KT CAVOK 34/23 Q1001 NOSIG=
METAR OMDB 242000Z 19003KT 170V230 CAVOK 37/17 Q0998 NOSIG=
METAR OMDW 242000Z 19004KT CAVOK 33/24 Q1000 NOSIG=
METAR OMFJ 242000Z 28015KT 8000 NSC 40/13 Q0997 RMK A2945=
METAR OMSJ 242000Z 12004KT CAVOK 32/23 Q0999=
METAR OMRK 242000Z 00000KT CAVOK 30/23 Q0999 A2950=
METAR OTBD 242000Z 35004KT CAVOK 32/16 Q0999 NOSIG=
METAR OTHH 242000Z 31005KT CAVOK 31/17 Q0999 NOSIG=
METAR OBBI 242000Z 31007KT CAVOK 31/22 Q0999 NOSIG=
METAR OEDF 242000Z 30007KT CAVOK 30/06 Q1000 NOSIG=
METAR OEDR 242000Z 28006KT CAVOK 28/06 Q0998 NOSIG=
METAR OEJN 242000Z 30008KT CAVOK 31/21 Q1005 NOSIG=
METAR OEMA 242000Z 26006KT CAVOK 37/03 Q1009 NOSIG=
METAR OEPA 242000Z 36005KT CAVOK 33/06 Q1006 NOSIG=
METAR OERF 242000Z 35003KT CAVOK 32/M01 Q1007=
METAR OERK 242000Z 01007KT CAVOK 33/00 Q1008 NOSIG=
METAR OERR 242000Z 04006KT CAVOK 31/10 Q1008 NOSIG=
METAR OERY NIL=
METAR OESH 242000Z 05004KT 8000 SKC 34/07 Q1008 NOSIG=
METAR OETB 242000Z 01006KT CAVOK 31/00 Q1010 NOSIG=
METAR OETF 242000Z 27005KT CAVOK 27/04 Q1016 NOSIG=
METAR OETR 242000Z 28008KT CAVOK 26/03 Q1012=
METAR OEWD 242000Z 12006KT 7000 SKC 33/13 Q1015 NOSIG=
METAR OEWJ 242000Z 00000KT CAVOK 27/25 Q1005 NOSIG=
METAR OEYN 242000Z 27006KT CAVOK 29/18 Q1003 NOSIG=
METAR OKBK 242000Z 34014KT 4500 -HZ SKC 37/04 Q1001 NOSIG=
METAR OOMS 241950Z 23004KT 8000 NSC 38/09 Q0996 NOSIG=
METAR OOSA 241950Z 19007KT 9999 SCT010 BKN025 29/27 Q1004 NOSIG=
METAR OYSN NIL=
METAR OYAA NIL=
 
Saturday, June 24, 2017 (20:32 UTC)